Time;durP1;ratioP1;P1;durP2;ratioP2;P2;SDS_P1;SDS_P2;PMS_P1;PMS_P2;Temp;Humidity;BMP_temperature;BMP_pressure;BME280_temperature;BME280_humidity;BME280_pressure;Samples;Min_cycle;Max_cycle;Signal;HPM_P1;HPM_P2
2024/01/05 00:00:17;;;;;;;7.47;3.40;;;;;;;;;;6208944;28;20502;-78
2024/01/05 00:03:19;;;;;;;12.82;3.53;;;;;;;;;;6223061;28;20068;-79
2024/01/05 00:06:21;;;;;;;7.32;3.40;;;;;;;;;;6212392;28;20515;-79
2024/01/05 00:09:23;;;;;;;15.30;3.60;;;;;;;;;;6199898;28;20584;-80
2024/01/05 00:12:25;;;;;;;10.35;3.53;;;;;;;;;;6221704;28;20134;-78
2024/01/05 00:15:27;;;;;;;10.13;4.03;;;;;;;;;;6206611;28;20057;-78
2024/01/05 00:18:29;;;;;;;12.52;3.45;;;;;;;;;;6218245;28;20126;-80
2024/01/05 00:21:30;;;;;;;8.60;3.28;;;;;;;;;;6207518;28;20094;-79
2024/01/05 00:24:32;;;;;;;7.78;2.85;;;;;;;;;;6192708;28;20508;-79
2024/01/05 00:27:34;;;;;;;15.13;2.70;;;;;;;;;;6216325;28;20056;-79
2024/01/05 00:30:35;;;;;;;8.77;2.40;;;;;;;;;;6227672;28;20043;-79
2024/01/05 00:33:41;;;;;;;5.80;2.40;;;;;;;;;;6221021;28;20432;-80
2024/01/05 00:36:43;;;;;;;7.63;3.40;;;;;;;;;;6217197;28;20041;-80
2024/01/05 00:39:46;;;;;;;11.75;3.22;;;;;;;;;;6221580;28;20055;-80
2024/01/05 00:42:47;;;;;;;8.85;2.92;;;;;;;;;;6220840;28;20144;-80
2024/01/05 00:45:49;;;;;;;10.95;2.60;;;;;;;;;;6210604;28;20042;-78
2024/01/05 00:48:51;;;;;;;7.47;2.78;;;;;;;;;;6216554;28;20049;-79
2024/01/05 00:51:53;;;;;;;10.10;2.88;;;;;;;;;;6196514;28;20054;-79
2024/01/05 00:54:54;;;;;;;12.90;2.85;;;;;;;;;;6218733;28;20045;-79
2024/01/05 00:57:56;;;;;;;7.88;2.65;;;;;;;;;;6223014;28;20415;-78
2024/01/05 01:00:58;;;;;;;11.93;3.50;;;;;;;;;;6222571;28;20069;-79
2024/01/05 01:04:00;;;;;;;9.10;2.55;;;;;;;;;;6190470;28;20527;-78
2024/01/05 01:07:02;;;;;;;6.32;2.35;;;;;;;;;;6209813;28;20113;-79
2024/01/05 01:10:04;;;;;;;9.02;2.58;;;;;;;;;;6206160;28;20072;-77
2024/01/05 01:13:05;;;;;;;10.85;2.90;;;;;;;;;;6225375;28;20053;-78
2024/01/05 01:16:08;;;;;;;7.50;2.13;;;;;;;;;;6207308;28;20046;-78
2024/01/05 01:19:09;;;;;;;11.70;2.70;;;;;;;;;;6217560;28;20428;-80
2024/01/05 01:22:11;;;;;;;9.90;2.58;;;;;;;;;;6211609;28;20046;-80
2024/01/05 01:25:13;;;;;;;10.02;2.75;;;;;;;;;;6219619;28;20603;-79
2024/01/05 01:28:14;;;;;;;9.75;2.88;;;;;;;;;;6204954;28;20045;-78
2024/01/05 01:31:16;;;;;;;11.32;2.58;;;;;;;;;;6198403;28;20045;-79
2024/01/05 01:34:18;;;;;;;9.43;3.20;;;;;;;;;;6209941;28;20072;-79
2024/01/05 01:37:20;;;;;;;11.15;3.03;;;;;;;;;;6211237;28;20123;-79
2024/01/05 01:40:21;;;;;;;11.23;3.05;;;;;;;;;;6212892;28;20046;-78
2024/01/05 01:43:25;;;;;;;6.75;3.15;;;;;;;;;;6222590;28;20833;-80
2024/01/05 01:46:28;;;;;;;8.60;3.15;;;;;;;;;;6225348;28;20520;-80
2024/01/05 01:49:30;;;;;;;9.82;3.03;;;;;;;;;;6218733;28;20524;-80
2024/01/05 01:52:34;;;;;;;10.93;3.00;;;;;;;;;;6187656;28;20053;-80
2024/01/05 01:55:35;;;;;;;9.35;3.22;;;;;;;;;;6212460;28;20045;-80
2024/01/05 01:58:42;;;;;;;9.93;3.50;;;;;;;;;;6223481;28;20042;-80
2024/01/05 02:01:44;;;;;;;12.02;3.70;;;;;;;;;;6198705;28;20064;-80
2024/01/05 02:04:46;;;;;;;7.78;2.83;;;;;;;;;;6220247;28;20046;-80
2024/01/05 02:07:49;;;;;;;14.43;3.40;;;;;;;;;;6225679;28;20069;-80
2024/01/05 02:10:51;;;;;;;8.97;2.93;;;;;;;;;;6226543;28;20404;-80
2024/01/05 02:13:52;;;;;;;17.33;3.08;;;;;;;;;;6214312;28;20057;-80
2024/01/05 02:16:55;;;;;;;14.48;3.00;;;;;;;;;;6226025;28;20058;-80
2024/01/05 02:19:57;;;;;;;13.48;3.45;;;;;;;;;;6223018;28;20045;-80
2024/01/05 02:23:01;;;;;;;9.55;2.80;;;;;;;;;;6215918;28;20054;-80
2024/01/05 02:26:03;;;;;;;11.02;2.95;;;;;;;;;;6228610;28;20143;-80
2024/01/05 02:29:05;;;;;;;12.55;3.00;;;;;;;;;;6220762;28;20496;-81
2024/01/05 02:32:07;;;;;;;11.35;3.20;;;;;;;;;;6226335;28;20560;-80
2024/01/05 02:35:09;;;;;;;16.65;3.38;;;;;;;;;;6223762;28;20045;-80
2024/01/05 02:38:11;;;;;;;13.35;2.95;;;;;;;;;;6222573;28;20160;-80
2024/01/05 02:41:13;;;;;;;14.88;3.03;;;;;;;;;;6204217;28;20652;-79
2024/01/05 02:44:14;;;;;;;10.55;3.80;;;;;;;;;;6216917;28;20037;-80
2024/01/05 02:47:16;;;;;;;12.80;3.00;;;;;;;;;;6209608;28;20049;-81
2024/01/05 02:50:19;;;;;;;10.50;3.25;;;;;;;;;;6227180;28;20057;-80
2024/01/05 02:53:21;;;;;;;12.57;3.50;;;;;;;;;;6229642;28;20049;-80
2024/01/05 02:56:22;;;;;;;11.93;2.83;;;;;;;;;;6192928;28;20444;-80
2024/01/05 02:59:24;;;;;;;10.68;3.15;;;;;;;;;;6208813;28;20749;-80
2024/01/05 03:02:26;;;;;;;10.95;3.40;;;;;;;;;;6222066;28;20107;-80
2024/01/05 03:05:28;;;;;;;6.45;2.90;;;;;;;;;;6229026;28;20180;-80
2024/01/05 03:08:30;;;;;;;13.63;2.95;;;;;;;;;;6216381;28;20114;-80
2024/01/05 03:11:31;;;;;;;11.70;3.10;;;;;;;;;;6231295;28;20042;-79
2024/01/05 03:14:33;;;;;;;7.53;2.70;;;;;;;;;;6227540;28;20068;-80
2024/01/05 03:17:35;;;;;;;11.43;2.83;;;;;;;;;;6224922;28;20041;-80
2024/01/05 03:20:37;;;;;;;11.07;3.17;;;;;;;;;;6223358;28;20045;-80
2024/01/05 03:23:39;;;;;;;9.02;2.47;;;;;;;;;;6206628;28;20042;-80
2024/01/05 03:26:43;;;;;;;9.98;2.92;;;;;;;;;;6229958;28;20041;-79
2024/01/05 03:29:46;;;;;;;11.20;4.13;;;;;;;;;;6227694;28;20099;-80
2024/01/05 03:32:48;;;;;;;10.10;3.00;;;;;;;;;;6222732;28;20054;-79
2024/01/05 03:35:49;;;;;;;13.57;3.00;;;;;;;;;;6210672;28;20050;-78
2024/01/05 03:38:51;;;;;;;9.95;2.58;;;;;;;;;;6207721;28;20068;-80
2024/01/05 03:41:53;;;;;;;6.60;2.65;;;;;;;;;;6211318;28;20076;-80
2024/01/05 03:44:55;;;;;;;14.75;2.90;;;;;;;;;;6211467;28;20060;-79
2024/01/05 03:47:56;;;;;;;8.70;2.70;;;;;;;;;;6223174;28;20053;-80
2024/01/05 03:50:58;;;;;;;9.02;2.80;;;;;;;;;;6224503;28;20041;-80
2024/01/05 03:54:00;;;;;;;10.07;3.05;;;;;;;;;;6225943;28;20134;-80
2024/01/05 03:57:02;;;;;;;11.50;2.88;;;;;;;;;;6215559;28;20045;-79
2024/01/05 04:00:05;;;;;;;8.23;2.33;;;;;;;;;;6214672;28;20045;-80
2024/01/05 04:03:07;;;;;;;5.38;2.30;;;;;;;;;;6187100;28;20716;-80
2024/01/05 04:06:18;;;;;;;9.13;2.50;;;;;;;;;;6226386;28;20116;-79
2024/01/05 04:09:20;;;;;;;16.90;3.97;;;;;;;;;;6223751;28;20216;-81
2024/01/05 04:12:21;;;;;;;11.70;3.42;;;;;;;;;;6210059;28;20041;-79
2024/01/05 04:15:23;;;;;;;12.52;3.33;;;;;;;;;;6209656;28;20056;-78
2024/01/05 04:18:25;;;;;;;12.70;3.88;;;;;;;;;;6227530;28;20053;-80
2024/01/05 04:21:27;;;;;;;10.82;2.95;;;;;;;;;;6221440;28;20502;-80
2024/01/05 04:24:28;;;;;;;12.70;3.75;;;;;;;;;;6211008;28;20376;-80
2024/01/05 04:27:30;;;;;;;12.57;3.30;;;;;;;;;;6228156;28;20438;-80
2024/01/05 04:30:32;;;;;;;13.57;4.03;;;;;;;;;;6226373;28;20475;-80
2024/01/05 04:33:34;;;;;;;10.43;3.95;;;;;;;;;;6219546;28;20518;-80
2024/01/05 04:36:36;;;;;;;8.07;3.00;;;;;;;;;;6175566;28;20048;-80
2024/01/05 04:39:39;;;;;;;17.60;3.80;;;;;;;;;;6208311;28;20045;-80
2024/01/05 04:42:41;;;;;;;8.50;3.88;;;;;;;;;;6203797;28;20050;-80
2024/01/05 04:45:43;;;;;;;10.93;3.90;;;;;;;;;;6221368;28;20046;-80
2024/01/05 04:48:45;;;;;;;14.38;4.07;;;;;;;;;;6200363;28;20552;-79
2024/01/05 04:51:47;;;;;;;13.32;3.42;;;;;;;;;;6210520;28;20077;-80
2024/01/05 04:54:49;;;;;;;11.63;3.72;;;;;;;;;;6208099;28;20525;-80
2024/01/05 04:57:50;;;;;;;10.13;3.35;;;;;;;;;;6205382;28;20116;-80
2024/01/05 05:00:53;;;;;;;7.05;3.47;;;;;;;;;;6207380;28;20065;-80
2024/01/05 05:03:56;;;;;;;12.82;3.80;;;;;;;;;;6202883;28;20066;-80
2024/01/05 05:06:58;;;;;;;13.05;3.72;;;;;;;;;;6222021;28;20042;-80
2024/01/05 05:10:00;;;;;;;10.32;3.50;;;;;;;;;;6222412;28;20128;-79
2024/01/05 05:13:02;;;;;;;13.25;4.07;;;;;;;;;;6228134;28;20119;-80
2024/01/05 05:16:03;;;;;;;12.90;3.65;;;;;;;;;;6219868;28;20738;-80
2024/01/05 05:19:05;;;;;;;8.70;3.03;;;;;;;;;;6219704;28;21550;-80
2024/01/05 05:22:07;;;;;;;11.95;4.22;;;;;;;;;;6211508;28;20136;-79
2024/01/05 05:25:09;;;;;;;9.93;3.90;;;;;;;;;;6211551;28;20724;-80
2024/01/05 05:28:10;;;;;;;11.10;4.05;;;;;;;;;;6200165;28;20046;-80
2024/01/05 05:31:12;;;;;;;12.68;3.75;;;;;;;;;;6203909;28;20060;-79
2024/01/05 05:34:14;;;;;;;10.15;4.13;;;;;;;;;;6223431;28;20423;-79
2024/01/05 05:37:16;;;;;;;9.52;3.88;;;;;;;;;;6210515;28;20070;-80
2024/01/05 05:40:18;;;;;;;10.52;3.35;;;;;;;;;;6216397;28;20183;-79
2024/01/05 05:43:20;;;;;;;9.02;4.13;;;;;;;;;;6212336;28;20076;-79
2024/01/05 05:46:21;;;;;;;17.75;4.32;;;;;;;;;;6216076;28;20508;-80
2024/01/05 05:49:23;;;;;;;12.77;3.80;;;;;;;;;;6206497;28;20057;-80
2024/01/05 05:52:25;;;;;;;8.60;3.75;;;;;;;;;;6228675;28;20053;-80
2024/01/05 05:55:31;;;;;;;10.80;3.80;;;;;;;;;;6233037;28;20052;-81
2024/01/05 05:58:33;;;;;;;12.60;4.47;;;;;;;;;;6222529;28;20140;-80
2024/01/05 06:01:35;;;;;;;18.90;5.90;;;;;;;;;;6229086;28;20128;-80
2024/01/05 06:04:37;;;;;;;26.10;9.82;;;;;;;;;;6227716;28;20056;-80
2024/01/05 06:07:39;;;;;;;23.23;8.70;;;;;;;;;;6213427;28;20125;-80
2024/01/05 06:10:40;;;;;;;18.58;7.10;;;;;;;;;;6225942;28;20128;-79
2024/01/05 06:13:42;;;;;;;21.60;11.20;;;;;;;;;;6226528;28;20464;-79
2024/01/05 06:16:44;;;;;;;15.80;4.85;;;;;;;;;;6227522;28;20065;-79
2024/01/05 06:19:45;;;;;;;14.02;4.88;;;;;;;;;;6207311;28;20124;-79
2024/01/05 06:22:47;;;;;;;18.00;7.68;;;;;;;;;;6217310;28;20061;-79
2024/01/05 06:25:49;;;;;;;13.60;7.63;;;;;;;;;;6227481;28;20050;-79
2024/01/05 06:28:51;;;;;;;13.32;4.47;;;;;;;;;;6228810;28;20083;-79
2024/01/05 06:31:53;;;;;;;55.08;20.55;;;;;;;;;;6222743;28;20588;-79
2024/01/05 06:34:55;;;;;;;28.25;11.40;;;;;;;;;;6225680;28;20056;-79
2024/01/05 06:37:56;;;;;;;13.35;7.13;;;;;;;;;;6229884;28;20042;-79
2024/01/05 06:40:58;;;;;;;20.70;12.70;;;;;;;;;;6210208;28;20117;-80
2024/01/05 06:44:00;;;;;;;11.48;4.25;;;;;;;;;;6220660;28;20045;-80
2024/01/05 06:47:02;;;;;;;18.42;6.57;;;;;;;;;;6227585;28;20100;-80
2024/01/05 06:50:04;;;;;;;21.15;8.18;;;;;;;;;;6216704;28;20103;-80
2024/01/05 06:53:06;;;;;;;13.35;5.05;;;;;;;;;;6202051;28;20045;-79
2024/01/05 06:56:10;;;;;;;14.55;5.25;;;;;;;;;;6208472;28;21096;-81
2024/01/05 06:59:12;;;;;;;22.63;7.95;;;;;;;;;;6203261;28;20041;-79
2024/01/05 07:02:13;;;;;;;25.60;8.02;;;;;;;;;;6195344;28;20122;-80
2024/01/05 07:05:15;;;;;;;12.55;4.28;;;;;;;;;;6193035;28;20072;-78
2024/01/05 07:08:17;;;;;;;10.32;4.03;;;;;;;;;;6204548;28;20076;-79
2024/01/05 07:11:22;;;;;;;11.10;4.47;;;;;;;;;;6210983;28;20085;-79
2024/01/05 07:14:24;;;;;;;7.57;2.50;;;;;;;;;;6192606;28;20051;-80
2024/01/05 07:17:26;;;;;;;12.73;3.40;;;;;;;;;;6188188;28;21004;-79
2024/01/05 07:20:28;;;;;;;7.95;2.83;;;;;;;;;;6205138;28;20065;-80
2024/01/05 07:23:30;;;;;;;9.07;2.03;;;;;;;;;;6228766;28;20042;-79
2024/01/05 07:26:32;;;;;;;6.63;2.15;;;;;;;;;;6223093;28;20064;-80
2024/01/05 07:29:34;;;;;;;6.75;2.58;;;;;;;;;;6210535;28;20081;-80
2024/01/05 07:32:37;;;;;;;6.75;2.55;;;;;;;;;;6210772;28;20439;-80
2024/01/05 07:35:39;;;;;;;12.18;5.47;;;;;;;;;;6207289;28;20073;-80
2024/01/05 07:38:41;;;;;;;10.52;3.42;;;;;;;;;;6228303;28;20149;-80
2024/01/05 07:41:43;;;;;;;10.27;2.95;;;;;;;;;;6225112;28;20046;-80
2024/01/05 07:44:45;;;;;;;6.33;2.90;;;;;;;;;;6213087;28;20049;-79
2024/01/05 07:47:47;;;;;;;10.43;3.35;;;;;;;;;;6207507;28;20531;-79
2024/01/05 07:50:49;;;;;;;11.95;4.10;;;;;;;;;;6231163;28;20045;-81
2024/01/05 07:53:51;;;;;;;10.55;2.92;;;;;;;;;;6196801;28;20052;-81
2024/01/05 07:56:53;;;;;;;7.35;3.13;;;;;;;;;;6191565;28;20515;-78
2024/01/05 07:59:55;;;;;;;10.10;3.50;;;;;;;;;;6214606;28;20152;-78
2024/01/05 08:02:57;;;;;;;12.32;4.10;;;;;;;;;;6216154;28;20045;-78
2024/01/05 08:05:59;;;;;;;8.35;3.40;;;;;;;;;;6198455;28;20045;-78
2024/01/05 08:09:03;;;;;;;9.02;2.53;;;;;;;;;;6202535;28;20046;-78
2024/01/05 08:12:05;;;;;;;5.57;2.58;;;;;;;;;;6224612;28;20122;-78
2024/01/05 08:15:07;;;;;;;8.88;2.30;;;;;;;;;;6205768;28;20155;-78
2024/01/05 08:18:09;;;;;;;11.65;2.55;;;;;;;;;;6206627;28;20598;-79
2024/01/05 08:21:11;;;;;;;9.45;2.78;;;;;;;;;;6221541;28;20526;-80
2024/01/05 08:24:13;;;;;;;9.05;2.88;;;;;;;;;;6205992;28;20049;-81
2024/01/05 08:27:15;;;;;;;6.95;2.85;;;;;;;;;;6191070;28;20052;-81
2024/01/05 08:30:18;;;;;;;8.20;3.05;;;;;;;;;;6210641;28;20084;-79
2024/01/05 08:33:20;;;;;;;6.25;3.13;;;;;;;;;;6216505;28;20049;-80
2024/01/05 08:36:22;;;;;;;12.57;3.60;;;;;;;;;;6210024;28;20149;-80
2024/01/05 08:39:24;;;;;;;6.90;2.55;;;;;;;;;;6221487;28;20045;-80
2024/01/05 08:42:26;;;;;;;6.57;2.40;;;;;;;;;;6211094;28;20060;-80
2024/01/05 08:45:29;;;;;;;8.07;2.95;;;;;;;;;;6202654;28;20503;-80
2024/01/05 08:48:31;;;;;;;4.35;2.67;;;;;;;;;;6220166;28;20099;-81
2024/01/05 08:51:33;;;;;;;5.88;3.10;;;;;;;;;;6205936;28;20050;-81
2024/01/05 08:54:39;;;;;;;5.00;2.83;;;;;;;;;;6225254;28;20175;-79
2024/01/05 08:57:41;;;;;;;5.55;2.70;;;;;;;;;;6205612;28;20512;-80
2024/01/05 09:00:42;;;;;;;5.93;2.83;;;;;;;;;;6208276;28;20056;-80
2024/01/05 09:03:44;;;;;;;7.57;1.90;;;;;;;;;;6226184;28;20069;-80
2024/01/05 09:06:46;;;;;;;7.63;2.20;;;;;;;;;;6192770;28;20054;-80
2024/01/05 09:09:48;;;;;;;10.68;3.70;;;;;;;;;;6206991;28;20096;-80
2024/01/05 09:12:50;;;;;;;8.23;3.92;;;;;;;;;;6223021;28;20079;-80
2024/01/05 09:15:51;;;;;;;11.40;5.20;;;;;;;;;;6192325;28;20045;-80
2024/01/05 09:18:53;;;;;;;10.07;4.05;;;;;;;;;;6209196;28;20067;-81
2024/01/05 09:21:55;;;;;;;11.90;3.90;;;;;;;;;;6211501;28;20049;-80
2024/01/05 09:24:57;;;;;;;9.30;3.90;;;;;;;;;;6221889;28;20056;-80
2024/01/05 09:28:05;;;;;;;10.88;4.15;;;;;;;;;;6203297;28;20049;-80
2024/01/05 09:31:07;;;;;;;10.05;4.90;;;;;;;;;;6217718;28;20053;-79
2024/01/05 09:34:09;;;;;;;11.70;4.15;;;;;;;;;;6220410;28;20053;-80
2024/01/05 09:37:11;;;;;;;6.90;2.42;;;;;;;;;;6221530;28;20049;-79
2024/01/05 09:40:13;;;;;;;5.90;2.60;;;;;;;;;;6202294;28;20061;-79
2024/01/05 09:43:16;;;;;;;8.05;2.28;;;;;;;;;;6199743;28;20123;-80
2024/01/05 09:46:18;;;;;;;5.03;2.63;;;;;;;;;;6227100;28;20050;-79
2024/01/05 09:49:22;;;;;;;8.52;2.67;;;;;;;;;;6226977;28;20176;-79
2024/01/05 09:52:24;;;;;;;4.93;2.13;;;;;;;;;;6208331;28;20048;-80
2024/01/05 09:55:26;;;;;;;8.75;2.30;;;;;;;;;;6201339;28;20037;-80
2024/01/05 09:58:28;;;;;;;2.97;1.58;;;;;;;;;;6227547;28;20041;-79
2024/01/05 10:01:30;;;;;;;9.83;2.23;;;;;;;;;;6226555;28;20148;-81
2024/01/05 10:04:33;;;;;;;5.82;2.65;;;;;;;;;;6228670;28;20041;-80
2024/01/05 10:07:43;;;;;;;6.95;2.42;;;;;;;;;;6206774;28;20073;-81
2024/01/05 10:10:56;;;;;;;19.77;9.68;;;;;;;;;;6203457;28;20049;-81
2024/01/05 10:14:03;;;;;;;36.70;14.07;;;;;;;;;;6222040;28;20145;-80
2024/01/05 10:17:09;;;;;;;15.75;6.80;;;;;;;;;;6226017;28;20135;-80
2024/01/05 10:20:16;;;;;;;14.32;5.38;;;;;;;;;;6225255;28;20038;-80
2024/01/05 10:23:19;;;;;;;9.25;3.88;;;;;;;;;;6210129;28;20073;-81
2024/01/05 10:26:21;;;;;;;4.38;2.30;;;;;;;;;;6207706;28;20080;-80
2024/01/05 10:29:24;;;;;;;5.78;1.40;;;;;;;;;;6231730;28;20082;-80
2024/01/05 10:32:26;;;;;;;6.03;2.35;;;;;;;;;;6221350;28;20048;-80
2024/01/05 10:35:30;;;;;;;4.68;1.60;;;;;;;;;;6219170;28;20070;-80
2024/01/05 10:38:32;;;;;;;5.50;1.65;;;;;;;;;;6208239;28;20045;-81
2024/01/05 10:41:34;;;;;;;1.95;1.10;;;;;;;;;;6231265;28;20044;-81
2024/01/05 10:44:37;;;;;;;3.22;0.90;;;;;;;;;;6211178;28;20132;-81
2024/01/05 10:47:39;;;;;;;5.22;1.40;;;;;;;;;;6223658;28;20195;-81
2024/01/05 10:50:44;;;;;;;3.95;1.50;;;;;;;;;;6227024;28;20091;-81
2024/01/05 10:53:50;;;;;;;3.28;1.40;;;;;;;;;;6206562;28;20526;-80
2024/01/05 10:56:56;;;;;;;2.35;1.10;;;;;;;;;;6231746;28;20760;-80
2024/01/05 10:59:58;;;;;;;2.60;1.30;;;;;;;;;;6213607;28;20045;-80
2024/01/05 11:03:10;;;;;;;4.00;1.38;;;;;;;;;;6226995;28;20055;-80
2024/01/05 11:06:12;;;;;;;3.95;1.10;;;;;;;;;;6210456;28;20049;-80
2024/01/05 11:09:41;;;;;;;4.35;1.40;;;;;;;;;;6208306;28;20042;-80
2024/01/05 11:13:08;;;;;;;3.95;1.00;;;;;;;;;;6228319;28;20041;-81
2024/01/05 11:16:32;;;;;;;2.67;0.90;;;;;;;;;;6221341;28;20057;-81
2024/01/05 11:20:02;;;;;;;4.40;0.88;;;;;;;;;;6221600;28;20141;-80
2024/01/05 11:23:08;;;;;;;2.13;1.08;;;;;;;;;;6206529;28;20522;-81
2024/01/05 11:26:34;;;;;;;4.53;1.00;;;;;;;;;;6209644;28;20049;-81
2024/01/05 11:29:46;;;;;;;6.00;2.30;;;;;;;;;;6223842;28;20134;-81
2024/01/05 11:32:49;;;;;;;4.75;1.27;;;;;;;;;;6208874;28;20562;-80
2024/01/05 11:35:51;;;;;;;1.88;0.90;;;;;;;;;;6210732;28;20100;-80
2024/01/05 11:38:53;;;;;;;10.20;1.48;;;;;;;;;;6203814;28;20057;-80
2024/01/05 11:41:55;;;;;;;2.38;1.05;;;;;;;;;;6230108;28;20130;-81
2024/01/05 11:44:59;;;;;;;2.78;1.10;;;;;;;;;;6211569;28;20718;-80
2024/01/05 11:48:01;;;;;;;3.00;0.63;;;;;;;;;;6212021;28;20067;-81
2024/01/05 11:51:09;;;;;;;3.45;0.70;;;;;;;;;;6224100;28;20543;-81
2024/01/05 11:54:11;;;;;;;4.18;0.90;;;;;;;;;;6223745;28;20500;-80
2024/01/05 11:57:14;;;;;;;4.25;1.25;;;;;;;;;;6224598;28;20140;-80
2024/01/05 12:00:16;;;;;;;2.88;0.82;;;;;;;;;;6217389;28;20047;-80
2024/01/05 12:03:20;;;;;;;3.20;0.77;;;;;;;;;;6227709;28;20050;-81
2024/01/05 12:06:24;;;;;;;2.80;0.77;;;;;;;;;;6212936;28;20046;-81
2024/01/05 12:09:26;;;;;;;2.08;1.05;;;;;;;;;;6208708;28;20077;-81
2024/01/05 12:12:32;;;;;;;2.13;0.93;;;;;;;;;;6223083;28;20049;-81
2024/01/05 12:15:35;;;;;;;2.87;0.90;;;;;;;;;;6236602;28;20046;-80
2024/01/05 12:18:52;;;;;;;1.98;0.80;;;;;;;;;;6214664;28;20533;-81
2024/01/05 12:21:54;;;;;;;2.42;0.85;;;;;;;;;;6201529;28;20041;-81
2024/01/05 12:24:56;;;;;;;4.15;1.35;;;;;;;;;;6193710;28;20100;-81
2024/01/05 12:27:58;;;;;;;3.80;1.27;;;;;;;;;;6204807;28;20052;-82
2024/01/05 12:31:02;;;;;;;6.55;1.30;;;;;;;;;;6219796;28;20081;-81
2024/01/05 12:34:04;;;;;;;2.42;0.90;;;;;;;;;;6213615;28;20139;-80
2024/01/05 12:37:07;;;;;;;2.95;1.05;;;;;;;;;;6222379;28;20045;-80
2024/01/05 12:40:10;;;;;;;;;;;;;;;;;;6221402;28;20090;-80
2024/01/05 12:43:12;;;;;;;4.60;0.90;;;;;;;;;;6214764;28;19933;-80
2024/01/05 12:46:14;;;;;;;2.42;0.60;;;;;;;;;;6193317;28;20578;-80
2024/01/05 12:49:24;;;;;;;1.52;0.68;;;;;;;;;;6206389;28;20046;-80
2024/01/05 12:52:34;;;;;;;0.88;0.60;;;;;;;;;;6219205;28;20128;-80
2024/01/05 12:55:37;;;;;;;1.65;0.70;;;;;;;;;;6219854;28;20045;-80
2024/01/05 12:58:44;;;;;;;1.38;0.65;;;;;;;;;;6206146;28;20060;-80
2024/01/05 13:01:45;;;;;;;1.58;0.63;;;;;;;;;;6202817;28;20119;-80
2024/01/05 13:04:47;;;;;;;3.60;0.82;;;;;;;;;;6227077;28;20514;-80
2024/01/05 13:07:49;;;;;;;1.10;0.50;;;;;;;;;;6201669;28;20526;-80
2024/01/05 13:10:51;;;;;;;1.40;0.70;;;;;;;;;;6217605;28;20069;-80
2024/01/05 13:13:52;;;;;;;0.60;0.40;;;;;;;;;;6213156;28;20052;-79
2024/01/05 13:16:54;;;;;;;2.30;0.60;;;;;;;;;;6226405;28;20570;-80
2024/01/05 13:19:56;;;;;;;1.58;0.60;;;;;;;;;;6215393;28;21557;-79
2024/01/05 13:22:58;;;;;;;2.05;0.70;;;;;;;;;;6193010;28;20053;-80
2024/01/05 13:26:01;;;;;;;3.70;2.83;;;;;;;;;;6223223;28;20046;-79
2024/01/05 13:29:03;;;;;;;3.35;1.08;;;;;;;;;;6227862;28;20041;-79
2024/01/05 13:32:05;;;;;;;0.30;0.30;;;;;;;;;;6222509;28;20053;-81
2024/01/05 13:35:07;;;;;;;1.48;0.40;;;;;;;;;;6209252;28;20060;-80
2024/01/05 13:38:09;;;;;;;1.13;0.60;;;;;;;;;;6214006;28;20052;-81
2024/01/05 13:41:11;;;;;;;0.50;0.40;;;;;;;;;;6220418;28;20053;-81
2024/01/05 13:44:13;;;;;;;0.68;0.30;;;;;;;;;;6205880;28;20528;-80
2024/01/05 13:47:14;;;;;;;0.95;0.30;;;;;;;;;;6225094;28;20048;-81
2024/01/05 13:50:16;;;;;;;0.82;0.40;;;;;;;;;;6213303;28;20495;-80
2024/01/05 13:53:18;;;;;;;1.77;0.30;;;;;;;;;;6206663;28;20188;-81
2024/01/05 13:56:20;;;;;;;1.20;0.40;;;;;;;;;;6203883;28;20049;-80
2024/01/05 13:59:22;;;;;;;0.55;0.30;;;;;;;;;;6181159;28;20053;-80
2024/01/05 14:02:25;;;;;;;1.95;0.30;;;;;;;;;;6223626;28;20052;-80
2024/01/05 14:05:28;;;;;;;1.38;0.40;;;;;;;;;;6225259;28;20167;-79
2024/01/05 14:08:31;;;;;;;1.20;0.40;;;;;;;;;;6232180;28;20136;-79
2024/01/05 14:11:33;;;;;;;2.17;0.40;;;;;;;;;;6213630;28;20143;-79
2024/01/05 14:14:35;;;;;;;1.40;0.32;;;;;;;;;;6214793;28;20053;-79
2024/01/05 14:17:37;;;;;;;0.50;0.30;;;;;;;;;;6231559;28;20061;-80
2024/01/05 14:20:39;;;;;;;2.53;0.50;;;;;;;;;;6211601;28;20049;-79
2024/01/05 14:23:41;;;;;;;2.28;0.57;;;;;;;;;;6230369;28;20054;-79
2024/01/05 14:26:47;;;;;;;2.53;1.08;;;;;;;;;;6188177;28;20056;-79
2024/01/05 14:29:51;;;;;;;1.63;0.40;;;;;;;;;;6208778;28;20128;-80
2024/01/05 14:32:52;;;;;;;2.05;0.47;;;;;;;;;;6217034;28;20503;-80
2024/01/05 14:35:54;;;;;;;0.70;0.47;;;;;;;;;;6224363;28;20049;-81
2024/01/05 14:38:56;;;;;;;4.20;0.40;;;;;;;;;;6194095;28;20076;-81
2024/01/05 14:41:58;;;;;;;3.67;0.60;;;;;;;;;;6228071;28;20061;-80
2024/01/05 14:45:00;;;;;;;1.48;0.55;;;;;;;;;;6219821;28;20049;-81
2024/01/05 14:48:02;;;;;;;3.10;1.33;;;;;;;;;;6209963;28;20041;-80
2024/01/05 14:51:05;;;;;;;1.02;0.47;;;;;;;;;;6208450;28;20049;-79
2024/01/05 14:54:06;;;;;;;0.60;0.20;;;;;;;;;;6194293;28;20054;-80
2024/01/05 14:57:08;;;;;;;0.82;0.35;;;;;;;;;;6196069;28;20053;-80
2024/01/05 15:00:12;;;;;;;0.57;0.35;;;;;;;;;;6202838;28;20141;-81
2024/01/05 15:03:13;;;;;;;1.85;0.40;;;;;;;;;;6201683;28;20187;-80
2024/01/05 15:06:15;;;;;;;0.90;0.43;;;;;;;;;;6188545;28;20751;-81
2024/01/05 15:09:17;;;;;;;1.95;0.98;;;;;;;;;;6203636;28;20073;-81
2024/01/05 15:12:19;;;;;;;3.70;0.82;;;;;;;;;;6190148;28;20575;-81
2024/01/05 15:15:21;;;;;;;2.58;0.82;;;;;;;;;;6208831;28;20054;-80
2024/01/05 15:18:23;;;;;;;1.67;0.55;;;;;;;;;;6221480;28;20809;-80
2024/01/05 15:21:25;;;;;;;0.52;0.52;;;;;;;;;;6222455;28;20055;-81
2024/01/05 15:24:27;;;;;;;3.70;0.80;;;;;;;;;;6217878;28;20045;-79
2024/01/05 15:27:29;;;;;;;1.73;0.73;;;;;;;;;;6191870;28;20048;-80
2024/01/05 15:30:31;;;;;;;0.55;0.55;;;;;;;;;;6211497;28;20061;-79
2024/01/05 15:33:32;;;;;;;2.03;0.60;;;;;;;;;;6216915;28;20053;-81
2024/01/05 15:36:34;;;;;;;0.93;0.60;;;;;;;;;;6220314;28;20140;-79
2024/01/05 15:39:39;;;;;;;3.63;2.90;;;;;;;;;;6217042;28;20056;-80
2024/01/05 15:42:41;;;;;;;3.92;1.92;;;;;;;;;;6201943;28;20041;-81
2024/01/05 15:45:43;;;;;;;10.55;4.85;;;;;;;;;;6198979;28;20064;-79
2024/01/05 15:48:45;;;;;;;4.20;2.17;;;;;;;;;;6201695;28;20056;-79
2024/01/05 15:51:48;;;;;;;5.13;1.20;;;;;;;;;;6214741;28;20042;-80
2024/01/05 15:54:50;;;;;;;2.28;1.13;;;;;;;;;;6215020;28;20065;-79
2024/01/05 15:57:52;;;;;;;2.03;0.90;;;;;;;;;;6202071;28;20128;-79
2024/01/05 16:00:54;;;;;;;1.75;1.00;;;;;;;;;;6200835;28;20054;-78
2024/01/05 16:03:56;;;;;;;2.72;1.25;;;;;;;;;;6214886;28;20511;-80
2024/01/05 16:06:57;;;;;;;2.53;1.30;;;;;;;;;;6220465;28;20061;-80
2024/01/05 16:09:59;;;;;;;1.90;0.70;;;;;;;;;;6180895;28;20764;-80
2024/01/05 16:13:01;;;;;;;1.13;0.50;;;;;;;;;;6217836;28;20180;-80
2024/01/05 16:16:16;;;;;;;1.45;0.52;;;;;;;;;;6222743;28;20065;-79
2024/01/05 16:19:24;;;;;;;1.95;0.77;;;;;;;;;;6200702;28;20539;-80
2024/01/05 16:22:32;;;;;;;4.57;0.82;;;;;;;;;;6215986;28;20120;-80
2024/01/05 16:25:35;;;;;;;2.63;1.00;;;;;;;;;;6216927;28;20415;-79
2024/01/05 16:28:37;;;;;;;3.28;2.10;;;;;;;;;;6185336;28;20045;-79
2024/01/05 16:31:38;;;;;;;4.68;1.45;;;;;;;;;;6212066;28;20801;-79
2024/01/05 16:34:41;;;;;;;4.18;1.45;;;;;;;;;;6190975;28;20187;-80
2024/01/05 16:37:43;;;;;;;3.33;1.30;;;;;;;;;;6208138;28;20502;-79
2024/01/05 16:40:45;;;;;;;1.67;1.05;;;;;;;;;;6216430;28;20124;-78
2024/01/05 16:43:46;;;;;;;0.80;0.70;;;;;;;;;;6211917;28;20104;-79
2024/01/05 16:46:48;;;;;;;3.08;1.17;;;;;;;;;;6215303;28;20251;-78
2024/01/05 16:49:50;;;;;;;1.75;0.60;;;;;;;;;;6217848;28;20054;-79
2024/01/05 16:52:52;;;;;;;1.65;0.70;;;;;;;;;;6226254;28;20091;-79
2024/01/05 16:55:53;;;;;;;0.85;0.50;;;;;;;;;;6214538;28;20080;-80
2024/01/05 16:58:56;;;;;;;1.83;0.80;;;;;;;;;;6191723;28;21759;-79
2024/01/05 17:01:58;;;;;;;2.47;0.88;;;;;;;;;;6217709;28;20165;-79
2024/01/05 17:04:59;;;;;;;2.75;1.25;;;;;;;;;;6202177;28;20050;-79
2024/01/05 17:08:01;;;;;;;1.13;0.60;;;;;;;;;;6212673;28;20380;-79
2024/01/05 17:11:03;;;;;;;1.92;0.77;;;;;;;;;;6190304;28;20038;-78
2024/01/05 17:14:05;;;;;;;2.30;0.70;;;;;;;;;;6215291;28;20813;-78
2024/01/05 17:17:06;;;;;;;1.15;0.70;;;;;;;;;;6213372;28;20085;-79
2024/01/05 17:20:09;;;;;;;1.27;0.73;;;;;;;;;;6174941;28;20057;-79
2024/01/05 17:23:25;;;;;;;2.10;0.70;;;;;;;;;;6202716;28;20075;-79
2024/01/05 17:26:29;;;;;;;2.30;0.80;;;;;;;;;;6198779;28;20041;-79
2024/01/05 17:29:33;;;;;;;2.47;1.10;;;;;;;;;;6194940;28;20124;-80
2024/01/05 17:32:34;;;;;;;;;;;;;;;;;;6199111;28;20061;-80
2024/01/05 17:35:36;;;;;;;2.88;1.25;;;;;;;;;;6216703;28;20107;-81
2024/01/05 17:38:38;;;;;;;2.45;1.00;;;;;;;;;;6214620;28;20866;-81
2024/01/05 17:41:42;;;;;;;4.32;1.10;;;;;;;;;;6193910;28;20095;-81
2024/01/05 17:44:44;;;;;;;3.00;1.63;;;;;;;;;;6219474;28;20041;-80
2024/01/05 17:47:46;;;;;;;3.40;1.73;;;;;;;;;;6184856;28;20065;-81
2024/01/05 17:50:48;;;;;;;6.97;1.83;;;;;;;;;;6217731;28;20045;-82
2024/01/05 17:53:52;;;;;;;2.53;1.77;;;;;;;;;;6218157;28;22160;-81
2024/01/05 17:56:58;;;;;;;2.92;1.90;;;;;;;;;;6196358;28;20049;-82
2024/01/05 17:59:59;;;;;;;2.25;1.13;;;;;;;;;;6197327;28;20069;-82
2024/01/05 18:03:02;;;;;;;2.83;1.40;;;;;;;;;;6211191;28;20765;-81
2024/01/05 18:06:08;;;;;;;3.65;1.30;;;;;;;;;;6215293;28;20053;-81
2024/01/05 18:09:11;;;;;;;2.85;1.00;;;;;;;;;;6200900;28;20056;-80